Time;durP1;ratioP1;P1;durP2;ratioP2;P2;SDS_P1;SDS_P2;PMS_P1;PMS_P2;Temp;Humidity;BMP_temperature;BMP_pressure;BME280_temperature;BME280_humidity;BME280_pressure;Samples;Min_cycle;Max_cycle;Signal;HPM_P1;HPM_P2
2023/05/11 00:00:27;;;;;;;54.33;40.97;;;;;;;;;;5092198;28;20028;-64
2023/05/11 00:02:52;;;;;;;50.22;37.13;;;;;;;;;;5093061;28;20827;-64
2023/05/11 00:05:17;;;;;;;61.77;42.43;;;;;;;;;;5092703;28;20027;-64
2023/05/11 00:07:43;;;;;;;65.00;46.20;;;;;;;;;;5091970;28;20266;-63
2023/05/11 00:10:08;;;;;;;68.40;47.75;;;;;;;;;;5092294;28;20032;-64
2023/05/11 00:12:33;;;;;;;57.60;45.75;;;;;;;;;;5092265;28;20074;-64
2023/05/11 00:14:59;;;;;;;65.63;46.47;;;;;;;;;;5092277;28;20482;-64
2023/05/11 00:17:24;;;;;;;61.22;48.75;;;;;;;;;;5090069;28;20032;-64
2023/05/11 00:19:50;;;;;;;81.03;50.40;;;;;;;;;;5092197;28;20024;-64
2023/05/11 00:22:15;;;;;;;76.05;53.05;;;;;;;;;;5091898;28;20024;-64
2023/05/11 00:24:40;;;;;;;105.55;65.43;;;;;;;;;;5090867;28;20020;-64
2023/05/11 00:27:05;;;;;;;127.82;68.60;;;;;;;;;;5089576;28;20024;-65
2023/05/11 00:29:31;;;;;;;85.43;57.72;;;;;;;;;;5091679;28;20031;-65
2023/05/11 00:31:56;;;;;;;82.40;55.00;;;;;;;;;;5091188;28;20024;-65
2023/05/11 00:34:21;;;;;;;85.60;56.95;;;;;;;;;;5092106;28;20036;-65
2023/05/11 00:36:48;;;;;;;161.07;84.53;;;;;;;;;;5092430;28;20028;-64
2023/05/11 00:39:13;;;;;;;176.30;84.05;;;;;;;;;;5091531;28;20047;-65
2023/05/11 00:41:38;;;;;;;82.85;51.90;;;;;;;;;;5092213;28;20032;-65
2023/05/11 00:44:04;;;;;;;103.07;60.60;;;;;;;;;;5091813;28;20036;-65
2023/05/11 00:46:30;;;;;;;77.00;50.05;;;;;;;;;;5092249;28;20024;-65
2023/05/11 00:48:55;;;;;;;100.47;59.65;;;;;;;;;;5090965;28;20589;-65
2023/05/11 00:51:21;;;;;;;103.82;57.95;;;;;;;;;;5090718;28;20012;-65
2023/05/11 00:53:47;;;;;;;88.63;55.15;;;;;;;;;;5085554;28;20824;-65
2023/05/11 00:56:13;;;;;;;105.35;54.97;;;;;;;;;;5091637;28;20012;-64
2023/05/11 00:58:38;;;;;;;85.07;53.50;;;;;;;;;;5091837;28;20036;-64
2023/05/11 01:01:04;;;;;;;127.38;64.18;;;;;;;;;;5091101;28;20051;-65
2023/05/11 01:03:30;;;;;;;151.45;74.80;;;;;;;;;;5090857;28;20047;-64
2023/05/11 01:06:10;;;;;;;89.85;55.47;;;;;;;;;;5091540;28;20028;-65
2023/05/11 01:08:53;;;;;;;108.60;57.28;;;;;;;;;;5090409;28;20032;-65
2023/05/11 01:11:28;;;;;;;90.68;57.50;;;;;;;;;;5091339;28;20024;-64
2023/05/11 01:13:53;;;;;;;;;;;;;;;;;;5091677;28;20394;-65
2023/05/11 01:16:21;;;;;;;87.47;52.10;;;;;;;;;;5090326;28;20266;-65
2023/05/11 01:18:59;;;;;;;95.95;57.00;;;;;;;;;;5090858;28;20032;-65
2023/05/11 01:21:26;;;;;;;83.03;53.17;;;;;;;;;;5091585;28;20020;-65
2023/05/11 01:24:10;;;;;;;89.22;54.33;;;;;;;;;;5089879;28;20035;-64
2023/05/11 01:26:54;;;;;;;115.10;59.75;;;;;;;;;;5090841;28;20032;-64
2023/05/11 01:29:22;;;;;;;142.82;69.65;;;;;;;;;;5082666;28;20028;-65
2023/05/11 01:31:48;;;;;;;106.15;61.03;;;;;;;;;;5090366;28;20024;-65
2023/05/11 01:34:18;;;;;;;78.15;51.53;;;;;;;;;;5090984;28;20039;-65
2023/05/11 01:36:47;;;;;;;90.78;54.22;;;;;;;;;;5090025;28;20103;-65
2023/05/11 01:39:13;;;;;;;114.90;65.82;;;;;;;;;;5088850;28;20048;-65
2023/05/11 01:41:40;;;;;;;91.47;54.78;;;;;;;;;;5090462;28;20431;-65
2023/05/11 01:44:08;;;;;;;76.95;50.78;;;;;;;;;;5079903;28;20098;-65
2023/05/11 01:46:34;;;;;;;56.78;40.58;;;;;;;;;;5090408;28;20027;-64
2023/05/11 01:49:00;;;;;;;45.63;33.22;;;;;;;;;;5091043;28;20024;-64
2023/05/11 01:51:27;;;;;;;44.30;31.60;;;;;;;;;;5083826;28;20024;-64
2023/05/11 01:53:53;;;;;;;41.42;27.02;;;;;;;;;;5089928;28;20031;-64
2023/05/11 01:56:20;;;;;;;53.95;34.58;;;;;;;;;;5090359;28;20386;-64
2023/05/11 01:58:46;;;;;;;54.90;28.60;;;;;;;;;;5077968;28;20115;-64
2023/05/11 02:01:13;;;;;;;73.72;42.28;;;;;;;;;;5091478;28;20028;-63
2023/05/11 02:03:40;;;;;;;69.28;33.22;;;;;;;;;;5093752;28;20031;-64
2023/05/11 02:06:06;;;;;;;44.28;25.02;;;;;;;;;;5094216;28;20492;-64
2023/05/11 02:08:32;;;;;;;33.60;23.88;;;;;;;;;;5093590;28;20035;-63
2023/05/11 02:10:58;;;;;;;51.95;26.02;;;;;;;;;;5093952;28;20032;-63
2023/05/11 02:13:24;;;;;;;27.35;22.58;;;;;;;;;;5094205;28;20028;-63
2023/05/11 02:15:51;;;;;;;48.92;26.52;;;;;;;;;;5091237;28;20032;-63
2023/05/11 02:18:18;;;;;;;36.88;27.15;;;;;;;;;;5093433;28;20054;-63
2023/05/11 02:20:44;;;;;;;30.80;22.48;;;;;;;;;;5093510;28;20093;-63
2023/05/11 02:23:10;;;;;;;51.10;23.88;;;;;;;;;;5093778;28;20046;-63
2023/05/11 02:25:35;;;;;;;29.40;23.17;;;;;;;;;;5093230;28;20016;-63
2023/05/11 02:28:01;;;;;;;54.63;27.45;;;;;;;;;;5093547;28;20489;-63
2023/05/11 02:30:28;;;;;;;35.92;25.15;;;;;;;;;;5093156;28;20035;-63
2023/05/11 02:32:55;;;;;;;38.80;25.85;;;;;;;;;;5093987;28;20028;-64
2023/05/11 02:35:31;;;;;;;61.05;32.22;;;;;;;;;;5093406;28;20463;-63
2023/05/11 02:37:58;;;;;;;75.80;38.33;;;;;;;;;;5093438;28;20032;-63
2023/05/11 02:40:25;;;;;;;73.65;39.38;;;;;;;;;;5093957;28;20383;-63
2023/05/11 02:42:53;;;;;;;54.50;31.38;;;;;;;;;;5093192;28;20027;-63
2023/05/11 02:45:19;;;;;;;86.00;41.97;;;;;;;;;;5093536;28;20031;-64
2023/05/11 02:47:46;;;;;;;49.08;25.55;;;;;;;;;;5093851;28;20032;-64
2023/05/11 02:50:12;;;;;;;91.30;37.92;;;;;;;;;;5093780;28;20028;-63
2023/05/11 02:52:41;;;;;;;77.82;41.97;;;;;;;;;;5093319;28;20118;-63
2023/05/11 02:55:08;;;;;;;54.95;28.58;;;;;;;;;;5093416;28;20036;-63
2023/05/11 02:57:33;;;;;;;69.13;36.85;;;;;;;;;;5092681;28;20027;-63
2023/05/11 02:59:59;;;;;;;82.28;39.75;;;;;;;;;;5091465;28;20028;-63
2023/05/11 03:02:24;;;;;;;71.75;39.13;;;;;;;;;;5092022;28;20397;-64
2023/05/11 03:04:50;;;;;;;112.90;47.28;;;;;;;;;;5093117;28;20027;-63
2023/05/11 03:07:15;;;;;;;94.30;43.53;;;;;;;;;;5093230;28;20383;-63
2023/05/11 03:09:41;;;;;;;77.18;42.97;;;;;;;;;;5093325;28;20024;-63
2023/05/11 03:12:06;;;;;;;57.30;31.65;;;;;;;;;;5092873;28;20035;-63
2023/05/11 03:14:32;;;;;;;52.55;32.83;;;;;;;;;;5092248;28;20813;-64
2023/05/11 03:16:59;;;;;;;59.08;34.22;;;;;;;;;;5092890;28;20489;-64
2023/05/11 03:19:26;;;;;;;67.13;36.58;;;;;;;;;;5093052;28;20103;-64
2023/05/11 03:21:51;;;;;;;85.85;47.03;;;;;;;;;;5089590;28;20024;-64
2023/05/11 03:24:16;;;;;;;100.40;50.88;;;;;;;;;;5091858;28;20040;-64
2023/05/11 03:26:43;;;;;;;78.75;47.17;;;;;;;;;;5092620;28;20421;-63
2023/05/11 03:29:08;;;;;;;88.45;50.40;;;;;;;;;;5092852;28;20063;-64
2023/05/11 03:31:34;;;;;;;77.85;49.45;;;;;;;;;;5091396;28;20432;-64
2023/05/11 03:33:59;;;;;;;104.20;52.42;;;;;;;;;;5092404;28;20055;-64
2023/05/11 03:36:25;;;;;;;75.18;46.35;;;;;;;;;;5092381;28;20107;-64
2023/05/11 03:38:52;;;;;;;101.53;53.42;;;;;;;;;;5090854;28;20028;-64
2023/05/11 03:41:18;;;;;;;136.93;60.58;;;;;;;;;;5090517;28;20028;-64
2023/05/11 03:43:45;;;;;;;101.90;49.42;;;;;;;;;;5085820;28;20069;-64
2023/05/11 03:46:11;;;;;;;72.95;38.35;;;;;;;;;;5092616;28;20035;-64
2023/05/11 03:48:37;;;;;;;84.22;50.55;;;;;;;;;;5091986;28;20020;-64
2023/05/11 03:51:03;;;;;;;156.48;71.90;;;;;;;;;;5092560;28;20032;-64
2023/05/11 03:53:29;;;;;;;105.70;47.97;;;;;;;;;;5091864;28;20020;-64
2023/05/11 03:55:54;;;;;;;110.85;56.13;;;;;;;;;;5091985;28;20028;-64
2023/05/11 03:58:20;;;;;;;88.70;48.05;;;;;;;;;;5092429;28;20549;-64
2023/05/11 04:00:46;;;;;;;88.22;51.30;;;;;;;;;;5092231;28;20505;-64
2023/05/11 04:03:11;;;;;;;131.88;64.78;;;;;;;;;;5092174;28;20043;-64
2023/05/11 04:05:36;;;;;;;131.18;65.53;;;;;;;;;;5091720;28;20035;-64
2023/05/11 04:08:02;;;;;;;91.60;47.53;;;;;;;;;;5091926;28;20117;-64
2023/05/11 04:10:28;;;;;;;94.40;54.67;;;;;;;;;;5088957;28;20026;-64
2023/05/11 04:12:53;;;;;;;103.70;54.03;;;;;;;;;;5090826;28;20082;-64
2023/05/11 04:15:19;;;;;;;134.35;69.47;;;;;;;;;;5091181;28;20051;-64
2023/05/11 04:17:44;;;;;;;100.50;53.58;;;;;;;;;;5091650;28;20494;-64
2023/05/11 04:20:09;;;;;;;109.05;53.28;;;;;;;;;;5082862;28;20052;-64
2023/05/11 04:22:35;;;;;;;95.25;54.92;;;;;;;;;;5092704;28;20126;-64
2023/05/11 04:25:00;;;;;;;96.80;56.22;;;;;;;;;;5091256;28;20008;-64
2023/05/11 04:27:25;;;;;;;104.20;56.63;;;;;;;;;;5091543;28;20035;-64
2023/05/11 04:29:50;;;;;;;97.22;52.83;;;;;;;;;;5091923;28;20115;-64
2023/05/11 04:32:16;;;;;;;121.22;64.45;;;;;;;;;;5091547;28;20040;-64
2023/05/11 04:34:41;;;;;;;110.53;62.10;;;;;;;;;;5089837;28;20035;-64
2023/05/11 04:37:06;;;;;;;172.32;75.13;;;;;;;;;;5092113;28;20316;-64
2023/05/11 04:39:35;;;;;;;112.13;54.78;;;;;;;;;;5091081;28;20016;-64
2023/05/11 04:42:00;;;;;;;126.60;64.70;;;;;;;;;;5090914;28;20020;-64
2023/05/11 04:44:26;;;;;;;71.43;48.13;;;;;;;;;;5087287;28;20070;-64
2023/05/11 04:46:54;;;;;;;141.07;61.88;;;;;;;;;;5091322;28;20569;-64
2023/05/11 04:49:19;;;;;;;130.60;65.32;;;;;;;;;;5091477;28;20030;-64
2023/05/11 04:51:45;;;;;;;84.65;50.17;;;;;;;;;;5091920;28;20107;-64
2023/05/11 04:54:10;;;;;;;86.95;55.90;;;;;;;;;;5090846;28;20077;-64
2023/05/11 04:56:39;;;;;;;113.40;61.22;;;;;;;;;;5091334;28;20051;-65
2023/05/11 04:59:04;;;;;;;111.90;58.58;;;;;;;;;;5091342;28;20466;-64
2023/05/11 05:01:30;;;;;;;101.50;60.78;;;;;;;;;;5089334;28;20077;-64
2023/05/11 05:03:55;;;;;;;122.93;69.53;;;;;;;;;;5091824;28;20031;-64
2023/05/11 05:06:20;;;;;;;113.63;64.38;;;;;;;;;;5091407;28;20016;-64
2023/05/11 05:08:45;;;;;;;68.82;53.00;;;;;;;;;;5090969;28;20470;-64
2023/05/11 05:11:11;;;;;;;119.88;63.85;;;;;;;;;;5090893;28;20435;-64
2023/05/11 05:13:36;;;;;;;88.78;60.42;;;;;;;;;;5091394;28;20081;-64
2023/05/11 05:16:01;;;;;;;109.18;62.67;;;;;;;;;;5090337;28;20425;-64
2023/05/11 05:18:26;;;;;;;94.68;62.00;;;;;;;;;;5090506;28;20390;-64
2023/05/11 05:20:52;;;;;;;111.35;63.83;;;;;;;;;;5090855;28;20478;-64
2023/05/11 05:23:17;;;;;;;104.50;65.67;;;;;;;;;;5091772;28;20026;-64
2023/05/11 05:25:42;;;;;;;92.20;59.10;;;;;;;;;;5090646;28;20277;-64
2023/05/11 05:28:07;;;;;;;85.72;57.42;;;;;;;;;;5073211;28;20036;-64
2023/05/11 05:30:33;;;;;;;87.35;58.22;;;;;;;;;;5091433;28;20038;-64
2023/05/11 05:32:58;;;;;;;89.78;56.05;;;;;;;;;;5089490;28;20030;-64
2023/05/11 05:35:23;;;;;;;87.10;57.47;;;;;;;;;;5090165;28;20027;-64
2023/05/11 05:37:48;;;;;;;86.22;57.63;;;;;;;;;;5091042;28;20122;-64
2023/05/11 05:40:14;;;;;;;78.35;52.63;;;;;;;;;;5091094;28;20459;-64
2023/05/11 05:42:39;;;;;;;72.63;52.03;;;;;;;;;;5088876;28;20020;-64
2023/05/11 05:45:05;;;;;;;82.13;55.63;;;;;;;;;;5090090;28;20020;-64
2023/05/11 05:47:30;;;;;;;68.88;50.03;;;;;;;;;;5065058;28;20085;-64
2023/05/11 05:49:55;;;;;;;75.78;50.70;;;;;;;;;;5035251;28;20081;-63
2023/05/11 05:52:20;;;;;;;69.70;50.08;;;;;;;;;;5043011;28;20028;-64
2023/05/11 05:54:46;;;;;;;63.63;46.88;;;;;;;;;;5041052;28;20047;-63
2023/05/11 05:57:11;;;;;;;58.05;44.33;;;;;;;;;;5043903;28;20927;-64
2023/05/11 05:59:36;;;;;;;69.40;46.53;;;;;;;;;;5041334;28;20086;-64
2023/05/11 06:02:02;;;;;;;62.13;43.58;;;;;;;;;;5041703;28;20035;-64
2023/05/11 06:04:27;;;;;;;56.58;40.38;;;;;;;;;;5087289;28;20036;-63
2023/05/11 06:06:54;;;;;;;64.53;39.58;;;;;;;;;;5081955;28;20024;-64
2023/05/11 06:09:20;;;;;;;56.05;38.53;;;;;;;;;;5060506;28;20024;-64
2023/05/11 06:11:45;;;;;;;49.35;37.25;;;;;;;;;;5042522;28;20122;-64
2023/05/11 06:14:10;;;;;;;41.05;33.08;;;;;;;;;;5046258;28;20028;-64
2023/05/11 06:16:36;;;;;;;43.20;33.72;;;;;;;;;;5044534;28;20024;-64
2023/05/11 06:19:01;;;;;;;44.38;32.92;;;;;;;;;;5041299;28;21037;-64
2023/05/11 06:21:26;;;;;;;42.90;32.03;;;;;;;;;;5048962;28;20028;-64
2023/05/11 06:23:51;;;;;;;43.47;32.23;;;;;;;;;;5090716;28;20382;-64
2023/05/11 06:26:23;;;;;;;41.00;30.45;;;;;;;;;;5090246;28;20292;-63
2023/05/11 06:28:49;;;;;;;48.33;33.47;;;;;;;;;;5091231;28;20119;-64
2023/05/11 06:31:14;;;;;;;44.95;32.30;;;;;;;;;;5091224;28;20411;-64
2023/05/11 06:33:39;;;;;;;43.42;28.70;;;;;;;;;;5090434;28;20020;-63
2023/05/11 06:36:05;;;;;;;43.47;29.17;;;;;;;;;;5091682;28;20077;-63
2023/05/11 06:38:30;;;;;;;37.90;29.35;;;;;;;;;;5090874;28;20040;-63
2023/05/11 06:40:56;;;;;;;35.58;26.02;;;;;;;;;;5090104;28;20032;-64
2023/05/11 06:43:21;;;;;;;36.67;26.17;;;;;;;;;;5090953;28;20364;-64
2023/05/11 06:45:47;;;;;;;43.28;27.80;;;;;;;;;;5091228;28;20491;-64
2023/05/11 06:48:12;;;;;;;38.13;26.98;;;;;;;;;;5093230;28;20024;-64
2023/05/11 06:50:38;;;;;;;41.25;29.10;;;;;;;;;;5094378;28;20027;-63
2023/05/11 06:53:03;;;;;;;31.75;22.65;;;;;;;;;;5094252;28;20020;-64
2023/05/11 06:55:28;;;;;;;35.72;24.98;;;;;;;;;;5094431;28;20374;-65
2023/05/11 06:57:53;;;;;;;40.25;27.38;;;;;;;;;;5093813;28;20024;-64
2023/05/11 07:00:19;;;;;;;31.42;22.75;;;;;;;;;;5069796;28;20056;-64
2023/05/11 07:02:44;;;;;;;43.05;25.13;;;;;;;;;;5045113;28;20109;-64
2023/05/11 07:05:11;;;;;;;37.72;24.73;;;;;;;;;;5045926;28;20028;-62
2023/05/11 07:07:36;;;;;;;34.72;21.38;;;;;;;;;;5046814;28;20062;-63
2023/05/11 07:10:01;;;;;;;28.60;20.65;;;;;;;;;;5047059;28;20020;-64
2023/05/11 07:12:26;;;;;;;33.78;22.55;;;;;;;;;;5046696;28;20092;-64
2023/05/11 07:14:52;;;;;;;27.38;20.13;;;;;;;;;;5081720;28;20032;-63
2023/05/11 07:17:17;;;;;;;35.10;20.55;;;;;;;;;;5089204;28;20453;-63
2023/05/11 07:19:43;;;;;;;24.88;19.60;;;;;;;;;;5094053;28;20024;-63
2023/05/11 07:22:08;;;;;;;31.85;19.95;;;;;;;;;;5093752;28;20035;-64
2023/05/11 07:24:33;;;;;;;28.85;20.45;;;;;;;;;;5093669;28;20020;-64
2023/05/11 07:26:59;;;;;;;31.52;21.58;;;;;;;;;;5094109;28;20478;-64
2023/05/11 07:29:25;;;;;;;35.90;18.40;;;;;;;;;;5093878;28;20110;-64
2023/05/11 07:31:50;;;;;;;28.05;20.80;;;;;;;;;;5093961;28;20535;-64
2023/05/11 07:34:15;;;;;;;29.02;18.70;;;;;;;;;;5081281;28;20035;-65
2023/05/11 07:36:41;;;;;;;27.95;18.40;;;;;;;;;;5040744;28;20987;-64
2023/05/11 07:39:06;;;;;;;25.02;17.58;;;;;;;;;;5035021;28;20610;-64
2023/05/11 07:41:31;;;;;;;24.90;16.45;;;;;;;;;;5045636;28;20070;-64
2023/05/11 07:43:58;;;;;;;31.13;16.23;;;;;;;;;;5071038;28;20111;-64
2023/05/11 07:46:24;;;;;;;26.27;15.57;;;;;;;;;;5093488;28;20036;-64
2023/05/11 07:48:49;;;;;;;20.20;14.80;;;;;;;;;;5093340;28;20028;-64
2023/05/11 07:51:14;;;;;;;23.85;16.15;;;;;;;;;;5093297;28;20024;-63
2023/05/11 07:53:39;;;;;;;22.65;15.52;;;;;;;;;;5093658;28;20023;-64
2023/05/11 07:56:05;;;;;;;21.73;16.08;;;;;;;;;;5093823;28;20042;-64
2023/05/11 07:58:31;;;;;;;29.42;17.63;;;;;;;;;;5091249;28;20026;-64
2023/05/11 08:00:57;;;;;;;27.20;17.48;;;;;;;;;;5093176;28;20058;-64
2023/05/11 08:03:22;;;;;;;19.60;15.93;;;;;;;;;;5092615;28;20445;-64
2023/05/11 08:05:47;;;;;;;35.38;17.92;;;;;;;;;;5093461;28;20081;-63
2023/05/11 08:08:13;;;;;;;22.27;16.23;;;;;;;;;;5093254;28;20019;-64
2023/05/11 08:10:38;;;;;;;29.73;15.90;;;;;;;;;;5093064;28;20020;-64
2023/05/11 08:13:04;;;;;;;29.95;15.80;;;;;;;;;;5092975;28;20066;-63
2023/05/11 08:15:29;;;;;;;20.73;15.68;;;;;;;;;;5092864;28;20102;-64
2023/05/11 08:17:54;;;;;;;21.67;14.38;;;;;;;;;;5089248;28;20128;-64
2023/05/11 08:20:20;;;;;;;26.00;15.13;;;;;;;;;;5092876;28;20024;-64
2023/05/11 08:22:45;;;;;;;17.90;12.57;;;;;;;;;;5092906;28;20107;-64
2023/05/11 08:25:10;;;;;;;19.20;13.35;;;;;;;;;;5092572;28;20038;-64
2023/05/11 08:27:36;;;;;;;33.05;14.27;;;;;;;;;;5083326;28;20020;-63
2023/05/11 08:30:01;;;;;;;19.17;11.95;;;;;;;;;;5088634;28;20024;-63
2023/05/11 08:32:27;;;;;;;22.23;12.80;;;;;;;;;;5093054;28;20024;-63
2023/05/11 08:34:52;;;;;;;20.80;13.80;;;;;;;;;;5092500;28;20387;-63
2023/05/11 08:37:17;;;;;;;20.07;12.83;;;;;;;;;;5092885;28;20062;-63
2023/05/11 08:39:43;;;;;;;29.88;14.18;;;;;;;;;;5092547;28;20266;-63
2023/05/11 08:42:09;;;;;;;29.02;13.73;;;;;;;;;;5092877;28;20506;-63
2023/05/11 08:44:36;;;;;;;22.45;14.95;;;;;;;;;;5059457;28;20031;-63
2023/05/11 08:47:04;;;;;;;25.55;14.65;;;;;;;;;;5090226;28;20020;-62
2023/05/11 08:49:29;;;;;;;20.60;14.45;;;;;;;;;;5091947;28;20024;-64
2023/05/11 08:51:55;;;;;;;25.30;14.52;;;;;;;;;;5090980;28;20051;-63
2023/05/11 08:54:20;;;;;;;24.42;14.35;;;;;;;;;;5092439;28;20521;-63
2023/05/11 08:56:46;;;;;;;24.83;14.70;;;;;;;;;;5092071;28;20553;-63
2023/05/11 08:59:12;;;;;;;23.88;15.13;;;;;;;;;;5091828;28;20020;-63
2023/05/11 09:01:39;;;;;;;31.27;15.68;;;;;;;;;;5092200;28;20473;-63
2023/05/11 09:04:05;;;;;;;24.48;15.40;;;;;;;;;;5092338;28;20020;-63
2023/05/11 09:06:31;;;;;;;30.65;18.40;;;;;;;;;;5084986;28;20087;-63
2023/05/11 09:08:56;;;;;;;32.95;17.75;;;;;;;;;;5088762;28;20096;-63
2023/05/11 09:11:23;;;;;;;30.27;18.70;;;;;;;;;;5091745;28;20028;-64
2023/05/11 09:13:49;;;;;;;26.92;19.52;;;;;;;;;;5092024;28;20028;-63
2023/05/11 09:16:14;;;;;;;36.78;18.13;;;;;;;;;;5092290;28;20398;-63
2023/05/11 09:18:50;;;;;;;30.50;19.05;;;;;;;;;;5091959;28;20038;-63
2023/05/11 09:21:16;;;;;;;30.27;18.85;;;;;;;;;;5042305;28;20773;-63
2023/05/11 09:23:42;;;;;;;30.60;17.63;;;;;;;;;;5044554;28;20020;-63
2023/05/11 09:26:18;;;;;;;20.08;15.15;;;;;;;;;;5042121;28;20050;-64
2023/05/11 09:28:47;;;;;;;34.08;17.38;;;;;;;;;;5035626;28;20017;-64
2023/05/11 09:31:33;;;;;;;25.08;14.85;;;;;;;;;;5059400;28;20031;-63
2023/05/11 09:34:08;;;;;;;19.45;13.60;;;;;;;;;;5053766;28;20073;-63
2023/05/11 09:36:33;;;;;;;23.27;14.68;;;;;;;;;;5090769;28;20034;-63
2023/05/11 09:39:01;;;;;;;18.37;11.13;;;;;;;;;;5091408;28;20020;-63
2023/05/11 09:41:26;;;;;;;18.15;11.07;;;;;;;;;;5090536;28;20308;-63
2023/05/11 09:43:51;;;;;;;21.27;13.90;;;;;;;;;;5090459;28;20063;-63
2023/05/11 09:46:20;;;;;;;19.63;11.52;;;;;;;;;;5091363;28;20036;-64
2023/05/11 09:48:56;;;;;;;21.58;12.07;;;;;;;;;;5065531;28;20825;-64
2023/05/11 09:51:28;;;;;;;15.02;10.50;;;;;;;;;;5043161;28;20021;-64
2023/05/11 09:53:53;;;;;;;17.50;10.77;;;;;;;;;;5037069;28;20024;-63
2023/05/11 09:56:19;;;;;;;18.67;10.80;;;;;;;;;;5041432;28;21007;-64
2023/05/11 09:58:46;;;;;;;16.50;10.33;;;;;;;;;;5054670;28;20024;-65
2023/05/11 10:01:11;;;;;;;24.30;11.43;;;;;;;;;;5091006;28;20297;-64
2023/05/11 10:04:07;;;;;;;19.52;11.73;;;;;;;;;;5090543;28;20058;-64
2023/05/11 10:06:42;;;;;;;18.30;10.70;;;;;;;;;;5030486;28;20038;-65
2023/05/11 10:09:08;;;;;;;29.70;13.63;;;;;;;;;;5042921;28;20064;-64
2023/05/11 10:11:33;;;;;;;18.58;13.65;;;;;;;;;;5041922;28;20906;-64
2023/05/11 10:13:58;;;;;;;27.85;13.85;;;;;;;;;;5036187;28;20032;-64
2023/05/11 10:16:24;;;;;;;30.98;15.43;;;;;;;;;;5044992;28;20039;-64
2023/05/11 10:18:50;;;;;;;21.00;14.48;;;;;;;;;;5059613;28;20470;-64
2023/05/11 10:21:17;;;;;;;26.02;15.27;;;;;;;;;;5043852;28;20043;-63
2023/05/11 10:23:42;;;;;;;19.88;14.75;;;;;;;;;;5039212;28;20118;-64
2023/05/11 10:26:08;;;;;;;25.67;14.82;;;;;;;;;;5042087;28;20024;-65
2023/05/11 10:28:33;;;;;;;21.80;14.57;;;;;;;;;;5048089;28;20028;-64
2023/05/11 10:30:59;;;;;;;19.63;13.77;;;;;;;;;;5047362;28;20024;-64
2023/05/11 10:33:25;;;;;;;23.58;14.43;;;;;;;;;;5037925;28;20237;-64
2023/05/11 10:35:50;;;;;;;18.02;14.73;;;;;;;;;;5046469;28;20979;-64
2023/05/11 10:38:16;;;;;;;24.08;14.77;;;;;;;;;;5045785;28;20896;-64
2023/05/11 10:40:42;;;;;;;19.27;12.55;;;;;;;;;;5046854;28;20925;-64
2023/05/11 10:43:33;;;;;;;18.00;11.88;;;;;;;;;;5047091;28;20020;-64
2023/05/11 10:46:18;;;;;;;15.40;12.05;;;;;;;;;;5088712;28;20035;-63
2023/05/11 10:49:09;;;;;;;25.73;11.85;;;;;;;;;;5063277;28;20019;-65
2023/05/11 10:51:34;;;;;;;29.67;14.27;;;;;;;;;;5039076;28;20107;-64
2023/05/11 10:54:18;;;;;;;25.80;14.43;;;;;;;;;;5093304;28;20115;-63
2023/05/11 10:57:02;;;;;;;21.63;14.20;;;;;;;;;;5086756;28;20016;-64
2023/05/11 10:59:40;;;;;;;20.70;14.75;;;;;;;;;;5042701;28;20022;-65
2023/05/11 11:02:06;;;;;;;19.02;13.38;;;;;;;;;;5041890;28;21035;-65
2023/05/11 11:04:43;;;;;;;21.45;12.32;;;;;;;;;;5044995;28;20024;-63
2023/05/11 11:07:08;;;;;;;19.17;12.82;;;;;;;;;;5085877;28;20470;-63
2023/05/11 11:09:52;;;;;;;18.80;11.88;;;;;;;;;;5091857;28;20027;-65
2023/05/11 11:12:18;;;;;;;21.07;13.40;;;;;;;;;;5065995;28;20066;-64
2023/05/11 11:14:59;;;;;;;18.95;14.95;;;;;;;;;;5087982;28;20085;-64
2023/05/11 11:17:26;;;;;;;24.17;17.15;;;;;;;;;;5090675;28;20031;-65
2023/05/11 11:19:52;;;;;;;19.67;15.25;;;;;;;;;;5075673;28;20028;-64
2023/05/11 11:22:40;;;;;;;31.38;16.48;;;;;;;;;;5077044;28;20847;-65
2023/05/11 11:25:09;;;;;;;20.55;17.25;;;;;;;;;;5066391;28;20028;-64
2023/05/11 11:27:41;;;;;;;24.75;15.80;;;;;;;;;;5026012;28;20060;-63
2023/05/11 11:30:19;;;;;;;22.60;14.15;;;;;;;;;;5040644;28;20419;-64
2023/05/11 11:32:46;;;;;;;24.70;15.15;;;;;;;;;;5042981;28;20028;-63
2023/05/11 11:35:31;;;;;;;20.98;15.25;;;;;;;;;;5035575;28;20048;-64
2023/05/11 11:38:00;;;;;;;27.88;15.27;;;;;;;;;;5043845;28;20122;-63
2023/05/11 11:40:34;;;;;;;17.13;13.00;;;;;;;;;;5078256;28;20091;-64
2023/05/11 11:43:08;;;;;;;19.33;14.05;;;;;;;;;;5087486;28;20024;-65
2023/05/11 11:45:35;;;;;;;19.25;14.75;;;;;;;;;;5093603;28;20058;-64
2023/05/11 11:48:11;;;;;;;22.73;16.45;;;;;;;;;;5061601;28;20032;-64
2023/05/11 11:50:38;;;;;;;16.30;11.98;;;;;;;;;;5043059;28;20075;-63
2023/05/11 11:53:03;;;;;;;16.73;11.68;;;;;;;;;;5046626;28;20894;-64
2023/05/11 11:55:47;;;;;;;18.88;12.23;;;;;;;;;;5079314;28;20114;-64
2023/05/11 11:58:32;;;;;;;22.20;12.98;;;;;;;;;;5092499;28;20475;-64
2023/05/11 12:00:58;;;;;;;18.05;12.75;;;;;;;;;;5082707;28;20032;-65
2023/05/11 12:03:24;;;;;;;17.73;12.55;;;;;;;;;;5092462;28;20123;-64
2023/05/11 12:05:52;;;;;;;20.02;12.32;;;;;;;;;;5093182;28;20023;-64
2023/05/11 12:08:18;;;;;;;18.65;11.98;;;;;;;;;;5091174;28;20027;-64
2023/05/11 12:10:45;;;;;;;23.80;12.73;;;;;;;;;;5089853;28;20020;-64
2023/05/11 12:13:11;;;;;;;20.45;13.00;;;;;;;;;;5064168;28;20098;-64
2023/05/11 12:15:36;;;;;;;14.57;11.40;;;;;;;;;;5065841;28;20487;-64
2023/05/11 12:18:02;;;;;;;19.30;12.02;;;;;;;;;;5061999;28;20078;-64
2023/05/11 12:20:27;;;;;;;17.83;12.48;;;;;;;;;;5047035;28;20031;-67
2023/05/11 12:22:53;;;;;;;21.48;12.60;;;;;;;;;;5045804;28;20048;-66
2023/05/11 12:25:18;;;;;;;16.45;11.13;;;;;;;;;;5053987;28;20127;-64
2023/05/11 12:27:47;;;;;;;17.60;11.85;;;;;;;;;;5044761;28;20028;-63
2023/05/11 12:30:23;;;;;;;16.33;11.05;;;;;;;;;;5029624;28;20865;-65
2023/05/11 12:32:49;;;;;;;18.27;10.50;;;;;;;;;;5055731;28;20094;-64
2023/05/11 12:35:20;;;;;;;26.83;12.75;;;;;;;;;;5052285;28;20032;-64
2023/05/11 12:37:46;;;;;;;19.20;12.20;;;;;;;;;;5054752;28;20066;-64
2023/05/11 12:40:12;;;;;;;17.70;11.93;;;;;;;;;;5081687;28;20031;-64
2023/05/11 12:42:38;;;;;;;18.83;12.73;;;;;;;;;;5087895;28;20025;-63
2023/05/11 12:45:06;;;;;;;18.40;11.00;;;;;;;;;;5091592;28;20482;-64
2023/05/11 12:47:31;;;;;;;17.55;10.77;;;;;;;;;;5068832;28;20289;-63
2023/05/11 12:49:57;;;;;;;17.05;8.77;;;;;;;;;;5081110;28;20031;-64
2023/05/11 12:52:23;;;;;;;19.80;9.98;;;;;;;;;;5091737;28;20067;-64
2023/05/11 12:54:52;;;;;;;17.20;10.10;;;;;;;;;;5091347;28;20615;-64
2023/05/11 12:57:22;;;;;;;11.93;8.85;;;;;;;;;;5092179;28;20032;-64
2023/05/11 12:59:47;;;;;;;15.98;9.00;;;;;;;;;;5075742;28;20845;-64
2023/05/11 13:02:16;;;;;;;12.63;8.95;;;;;;;;;;5056417;28;20024;-64
2023/05/11 13:04:42;;;;;;;11.85;8.65;;;;;;;;;;5054436;28;20020;-65
2023/05/11 13:07:08;;;;;;;11.63;9.43;;;;;;;;;;5084396;28;20020;-64
2023/05/11 13:09:33;;;;;;;17.30;9.20;;;;;;;;;;5091400;28;20024;-64
2023/05/11 13:12:09;;;;;;;17.50;8.75;;;;;;;;;;5091376;28;20470;-64
2023/05/11 13:14:35;;;;;;;15.88;8.88;;;;;;;;;;5090687;28;20115;-65
2023/05/11 13:17:00;;;;;;;17.30;9.07;;;;;;;;;;5085914;28;20755;-65
2023/05/11 13:19:27;;;;;;;14.02;8.68;;;;;;;;;;5050696;28;20028;-65
2023/05/11 13:21:53;;;;;;;18.90;8.25;;;;;;;;;;5043711;28;20885;-65
2023/05/11 13:24:19;;;;;;;12.18;6.75;;;;;;;;;;5047966;28;20046;-65
2023/05/11 13:26:44;;;;;;;13.77;8.15;;;;;;;;;;5053179;28;20028;-65
2023/05/11 13:29:10;;;;;;;19.08;8.27;;;;;;;;;;5061757;28;20027;-65
2023/05/11 13:31:41;;;;;;;10.65;6.70;;;;;;;;;;5078454;28;20024;-65
2023/05/11 13:34:06;;;;;;;16.25;6.78;;;;;;;;;;5076311;28;20038;-66
2023/05/11 13:36:31;;;;;;;12.13;5.90;;;;;;;;;;5081882;28;20020;-65
2023/05/11 13:38:56;;;;;;;12.85;7.13;;;;;;;;;;5082926;28;20023;-66
2023/05/11 13:41:22;;;;;;;15.17;7.77;;;;;;;;;;5048203;28;20030;-64
2023/05/11 13:43:49;;;;;;;11.85;7.50;;;;;;;;;;5055786;28;20274;-65
2023/05/11 13:46:15;;;;;;;12.35;7.03;;;;;;;;;;5046246;28;20032;-65
2023/05/11 13:48:40;;;;;;;12.40;7.53;;;;;;;;;;5067536;28;20431;-65
2023/05/11 13:51:05;;;;;;;12.38;7.18;;;;;;;;;;5091398;28;20043;-64
2023/05/11 13:53:31;;;;;;;14.15;8.27;;;;;;;;;;5082957;28;20028;-64
2023/05/11 13:55:56;;;;;;;13.95;8.10;;;;;;;;;;5062391;28;20474;-64
2023/05/11 13:58:21;;;;;;;16.58;6.13;;;;;;;;;;5064754;28;20016;-65
2023/05/11 14:00:47;;;;;;;10.80;6.43;;;;;;;;;;5062073;28;20036;-63
2023/05/11 14:03:12;;;;;;;23.80;7.45;;;;;;;;;;5059426;28;20136;-63
2023/05/11 14:05:37;;;;;;;10.30;6.38;;;;;;;;;;5049884;28;20008;-65
2023/05/11 14:08:03;;;;;;;9.77;6.28;;;;;;;;;;5054646;28;20047;-64
2023/05/11 14:10:28;;;;;;;17.63;6.97;;;;;;;;;;5046253;28;20116;-65
2023/05/11 14:12:54;;;;;;;12.20;6.18;;;;;;;;;;5054684;28;20869;-63
2023/05/11 14:15:19;;;;;;;14.48;7.13;;;;;;;;;;5063023;28;20064;-66